createdAt,value
2017-11-17T00:00:28.052Z,91.31
2017-11-17T00:01:32.927Z,90.90
2017-11-17T00:02:37.718Z,90.49
2017-11-17T00:03:42.455Z,90.56
2017-11-17T00:04:47.066Z,90.09
2017-11-17T00:05:51.696Z,89.81
2017-11-17T00:06:56.616Z,89.44
2017-11-17T00:08:01.245Z,89.38
2017-11-17T00:09:06.113Z,89.43
2017-11-17T00:10:10.836Z,89.69
2017-11-17T00:11:15.606Z,90.21
2017-11-17T00:12:20.301Z,90.64
2017-11-17T00:13:25.274Z,90.68
2017-11-17T00:14:29.984Z,90.27
2017-11-17T00:15:34.687Z,90.18
2017-11-17T00:16:39.367Z,90.24
2017-11-17T00:17:44.079Z,90.85
2017-11-17T00:18:48.832Z,91.22
2017-11-17T00:19:53.837Z,90.81
2017-11-17T00:20:58.556Z,90.25
2017-11-17T00:22:03.314Z,90.00
2017-11-17T00:23:08.144Z,90.58
2017-11-17T00:24:12.901Z,90.67
2017-11-17T00:25:17.687Z,90.45
2017-11-17T00:26:22.831Z,91.06
2017-11-17T00:27:27.618Z,91.03
2017-11-17T00:28:32.382Z,90.23
2017-11-17T00:29:37.145Z,90.81
2017-11-17T00:30:41.976Z,91.46
2017-11-17T00:31:46.811Z,90.87
2017-11-17T00:32:51.906Z,90.42
2017-11-17T00:33:56.644Z,90.00
2017-11-17T00:35:01.494Z,89.84
2017-11-17T00:36:07.027Z,89.94
2017-11-17T00:37:11.813Z,90.37
2017-11-17T00:38:16.587Z,91.24
2017-11-17T00:39:21.688Z,91.47
2017-11-17T00:40:26.466Z,91.77
2017-11-17T00:41:31.284Z,92.19
2017-11-17T00:42:36.094Z,92.04
2017-11-17T00:43:40.884Z,91.00
2017-11-17T00:44:45.648Z,90.25
2017-11-17T00:45:50.626Z,89.48
2017-11-17T00:46:55.282Z,89.57
2017-11-17T00:47:59.953Z,89.55
2017-11-17T00:49:05.756Z,89.78
2017-11-17T00:50:10.495Z,89.57
2017-11-17T00:51:15.528Z,89.48
2017-11-17T00:52:20.235Z,89.00
2017-11-17T00:53:24.950Z,89.15
2017-11-17T00:54:29.568Z,89.08
2017-11-17T00:55:34.228Z,88.89
2017-11-17T00:56:38.925Z,88.91
2017-11-17T00:57:43.945Z,88.82
2017-11-17T00:58:48.623Z,88.83
2017-11-17T00:59:53.303Z,89.16
2017-11-17T01:00:58.058Z,89.24
2017-11-17T01:02:02.761Z,88.86
2017-11-17T01:03:07.457Z,88.99
2017-11-17T01:04:12.442Z,89.07
2017-11-17T01:05:17.104Z,88.77
2017-11-17T01:06:21.870Z,89.11
2017-11-17T01:07:26.550Z,89.62
2017-11-17T01:08:31.257Z,90.30
2017-11-17T01:09:36.134Z,90.18
2017-11-17T01:10:41.031Z,90.23
2017-11-17T01:11:45.728Z,90.14
2017-11-17T01:12:50.419Z,90.55
2017-11-17T01:13:55.198Z,89.92
2017-11-17T01:14:59.950Z,89.52
2017-11-17T01:16:04.900Z,90.35
2017-11-17T01:17:10.759Z,90.19
2017-11-17T01:18:15.515Z,90.31
2017-11-17T01:19:20.221Z,90.26
2017-11-17T01:20:24.865Z,90.05
2017-11-17T01:21:29.449Z,90.44
2017-11-17T01:22:34.065Z,91.14
2017-11-17T01:23:39.084Z,91.50
2017-11-17T01:24:43.880Z,90.96
2017-11-17T01:25:48.676Z,91.80
2017-11-17T01:26:53.377Z,92.40
2017-11-17T01:27:58.060Z,91.82
2017-11-17T01:29:02.757Z,90.95
2017-11-17T01:30:07.726Z,90.54
2017-11-17T01:31:12.439Z,90.55
2017-11-17T01:32:17.109Z,90.60
2017-11-17T01:33:21.796Z,91.22
2017-11-17T01:34:26.466Z,91.25
2017-11-17T01:35:31.169Z,91.15
2017-11-17T01:36:36.756Z,90.77
2017-11-17T01:37:41.435Z,90.57
2017-11-17T01:38:46.221Z,90.70
2017-11-17T01:39:50.955Z,91.79
2017-11-17T01:40:55.655Z,91.50
2017-11-17T01:42:00.335Z,91.69
2017-11-17T01:43:05.315Z,91.75
2017-11-17T01:44:09.991Z,91.86
2017-11-17T01:45:15.072Z,92.23
2017-11-17T01:46:19.745Z,92.70
2017-11-17T01:47:24.446Z,92.50
2017-11-17T01:48:29.122Z,93.25
2017-11-17T01:49:34.098Z,93.99
2017-11-17T01:50:38.761Z,93.73
2017-11-17T01:51:43.440Z,93.49
2017-11-17T01:52:48.121Z,93.15
2017-11-17T01:53:53.012Z,92.54
2017-11-17T01:54:57.672Z,92.12
2017-11-17T01:56:02.695Z,92.42
2017-11-17T01:57:07.368Z,92.35
2017-11-17T01:58:12.057Z,92.07
2017-11-17T01:59:16.752Z,92.59
2017-11-17T02:16:28.639Z,92.83
2017-11-17T02:17:33.425Z,92.69
2017-11-17T02:18:38.186Z,92.39
2017-11-17T02:19:42.955Z,91.87
2017-11-17T02:20:47.788Z,91.92
2017-11-17T02:21:52.843Z,91.97
2017-11-17T02:22:57.671Z,91.26
2017-11-17T02:24:02.436Z,90.99
2017-11-17T02:25:07.191Z,90.82
2017-11-17T02:26:11.975Z,91.16
2017-11-17T02:27:16.772Z,91.89
2017-11-17T02:28:22.011Z,91.76
2017-11-17T02:29:26.779Z,92.18
2017-11-17T02:30:31.590Z,92.38
2017-11-17T02:31:36.371Z,92.19
2017-11-17T02:32:47.753Z,92.27
2017-11-17T02:33:52.383Z,92.03
2017-11-17T02:34:57.380Z,92.11
2017-11-17T02:36:02.163Z,91.73
2017-11-17T02:37:06.959Z,91.51
2017-11-17T02:38:12.583Z,91.47
2017-11-17T02:39:17.425Z,91.43
2017-11-17T02:40:22.217Z,90.88
2017-11-17T02:41:27.306Z,91.11
2017-11-17T02:42:32.076Z,91.23
2017-11-17T02:43:36.854Z,91.60
2017-11-17T02:44:42.577Z,91.72
2017-11-17T02:45:47.367Z,91.87
2017-11-17T02:46:53.313Z,92.01
2017-11-17T02:47:58.314Z,91.51
2017-11-17T02:49:03.055Z,90.99
2017-11-17T02:50:08.049Z,90.62
2017-11-17T02:51:13.250Z,90.83
2017-11-17T02:52:18.092Z,90.81
2017-11-17T02:53:23.201Z,90.90
2017-11-17T02:54:29.185Z,91.38
2017-11-17T02:55:33.967Z,91.69
2017-11-17T02:56:38.767Z,91.90
2017-11-17T02:57:43.557Z,91.38
2017-11-17T02:58:48.375Z,91.23
2017-11-17T02:59:53.462Z,91.36
2017-11-17T03:00:58.296Z,91.34
2017-11-17T03:02:03.199Z,91.48
2017-11-17T03:03:08.002Z,91.38
2017-11-17T03:04:12.655Z,91.23
2017-11-17T03:05:17.299Z,91.24
2017-11-17T03:06:22.394Z,91.51
2017-11-17T03:07:28.348Z,91.54
2017-11-17T03:08:33.197Z,91.94
2017-11-17T03:09:39.659Z,91.75
2017-11-17T03:10:44.475Z,91.54
2017-11-17T03:11:49.046Z,91.72
2017-11-17T03:12:54.257Z,91.51
2017-11-17T03:13:58.912Z,91.69
2017-11-17T03:15:03.591Z,91.89
2017-11-17T03:16:08.266Z,91.66
2017-11-17T03:17:12.924Z,91.78
2017-11-17T03:18:17.569Z,92.50
2017-11-17T03:19:22.626Z,92.61
2017-11-17T03:20:27.279Z,92.49
2017-11-17T03:21:31.961Z,92.23
2017-11-17T03:22:36.628Z,91.98
2017-11-17T03:23:41.258Z,91.94
2017-11-17T03:24:45.948Z,91.93
2017-11-17T03:25:51.356Z,92.00
2017-11-17T03:26:57.462Z,92.12
2017-11-17T03:28:02.103Z,91.92
2017-11-17T03:29:06.794Z,91.78
2017-11-17T03:30:11.479Z,92.05
2017-11-17T03:31:16.187Z,92.37
2017-11-17T03:32:21.550Z,92.21
2017-11-17T03:33:26.353Z,92.10
2017-11-17T03:34:31.136Z,91.92
2017-11-17T03:35:37.860Z,91.96
2017-11-17T03:36:42.639Z,92.74
2017-11-17T03:37:48.969Z,92.60
2017-11-17T03:38:54.049Z,92.67
2017-11-17T03:39:58.857Z,92.94
2017-11-17T03:41:03.680Z,93.19
2017-11-17T03:42:08.354Z,93.27
2017-11-17T03:43:13.014Z,93.42
2017-11-17T03:44:17.953Z,93.98
2017-11-17T03:45:22.960Z,94.10
2017-11-17T03:46:27.796Z,94.19
2017-11-17T03:47:32.615Z,93.94
2017-11-17T03:48:37.320Z,94.05
2017-11-17T03:49:42.142Z,94.25
2017-11-17T03:50:46.783Z,93.19
2017-11-17T03:51:51.754Z,92.77
2017-11-17T03:52:56.423Z,92.44
2017-11-17T03:54:01.224Z,92.39
2017-11-17T03:55:06.977Z,91.90
2017-11-17T03:56:11.782Z,91.75
2017-11-17T03:57:16.566Z,91.98
2017-11-17T03:58:21.636Z,91.47
2017-11-17T03:59:26.683Z,90.94
2017-11-17T04:00:31.647Z,90.87
2017-11-17T04:01:36.641Z,90.80
2017-11-17T04:02:42.752Z,90.87
2017-11-17T04:03:47.834Z,91.44
2017-11-17T04:04:52.629Z,91.18
2017-11-17T04:05:57.385Z,91.30
2017-11-17T04:07:02.488Z,91.10
2017-11-17T04:08:07.345Z,90.82
2017-11-17T04:09:12.282Z,91.41
2017-11-17T04:10:17.427Z,91.54
2017-11-17T04:11:22.362Z,91.85
2017-11-17T04:12:27.358Z,91.65
2017-11-17T04:13:32.153Z,90.79
2017-11-17T04:14:36.985Z,91.28
2017-11-17T04:15:41.782Z,91.68
2017-11-17T04:16:46.865Z,91.64
2017-11-17T04:17:51.692Z,91.75
2017-11-17T04:18:56.522Z,91.74
2017-11-17T04:20:01.331Z,91.78
2017-11-17T04:21:06.102Z,91.93
2017-11-17T04:22:10.874Z,91.95
2017-11-17T04:23:15.946Z,92.44
2017-11-17T04:24:20.701Z,92.54
2017-11-17T04:25:25.491Z,92.06
2017-11-17T04:26:30.271Z,92.00
2017-11-17T04:27:35.042Z,91.94
2017-11-17T04:28:39.757Z,91.49
2017-11-17T04:29:44.925Z,91.92
2017-11-17T04:30:49.751Z,92.27
2017-11-17T04:31:54.671Z,92.10
2017-11-17T04:32:59.465Z,91.60
2017-11-17T04:34:05.184Z,91.28
2017-11-17T04:35:10.020Z,91.06
2017-11-17T04:36:15.178Z,91.63
2017-11-17T04:37:20.012Z,91.78
2017-11-17T04:38:24.833Z,91.79
2017-11-17T04:39:29.608Z,91.58
2017-11-17T04:40:34.443Z,91.17
2017-11-17T04:41:39.252Z,90.95
2017-11-17T04:42:44.442Z,90.85
2017-11-17T04:43:49.291Z,91.26
2017-11-17T04:44:54.062Z,91.25
2017-11-17T04:45:58.900Z,91.24
2017-11-17T04:47:03.723Z,91.58
2017-11-17T04:48:08.624Z,91.12
2017-11-17T04:49:13.691Z,91.38
2017-11-17T04:50:18.532Z,91.04
2017-11-17T04:51:23.341Z,90.90
2017-11-17T04:52:28.154Z,91.15
2017-11-17T04:53:32.932Z,91.47
2017-11-17T04:54:37.874Z,91.56
2017-11-17T04:55:42.998Z,91.43
2017-11-17T04:56:47.853Z,91.51
2017-11-17T04:57:52.978Z,91.57
2017-11-17T04:58:57.860Z,91.39
2017-11-17T05:00:02.696Z,91.18
2017-11-17T05:15:07.028Z,91.23
2017-11-17T05:16:11.976Z,90.69
2017-11-17T05:17:16.566Z,90.83
2017-11-17T05:18:21.275Z,91.13
2017-11-17T05:19:26.047Z,90.70
2017-11-17T05:20:31.025Z,90.75
2017-11-17T05:21:35.792Z,91.12
2017-11-17T05:22:40.553Z,91.58
2017-11-17T05:23:45.290Z,91.50
2017-11-17T05:24:50.009Z,91.69
2017-11-17T05:25:54.961Z,91.82
2017-11-17T05:27:00.023Z,92.04
2017-11-17T05:28:05.811Z,92.28
2017-11-17T05:29:10.540Z,92.66
2017-11-17T05:30:15.250Z,92.17
2017-11-17T05:31:19.962Z,92.21
2017-11-17T05:32:24.716Z,92.77
2017-11-17T05:33:29.745Z,93.09
2017-11-17T05:34:34.462Z,92.98
2017-11-17T05:35:39.182Z,93.07
2017-11-17T05:36:43.969Z,93.68
2017-11-17T05:37:48.687Z,93.50
2017-11-17T05:38:53.493Z,92.92
2017-11-17T05:39:58.785Z,92.15
2017-11-17T05:41:03.536Z,92.03
2017-11-17T05:42:08.336Z,92.03
2017-11-17T05:43:13.084Z,91.86
2017-11-17T05:44:17.805Z,91.77
2017-11-17T05:45:22.527Z,91.82
2017-11-17T05:46:27.838Z,92.09
2017-11-17T05:47:32.549Z,91.95
2017-11-17T05:48:37.273Z,91.90
2017-11-17T05:49:42.051Z,91.81
2017-11-17T05:50:46.784Z,91.61
2017-11-17T05:51:51.534Z,91.37
2017-11-17T05:52:56.528Z,91.77
2017-11-17T05:54:01.307Z,91.63
2017-11-17T05:55:06.093Z,91.83
2017-11-17T05:56:10.885Z,91.38
2017-11-17T05:57:15.678Z,90.98
2017-11-17T05:58:20.412Z,90.34
2017-11-17T05:59:25.450Z,90.30
2017-11-17T06:00:30.159Z,90.23
2017-11-17T06:01:34.963Z,90.59
2017-11-17T06:02:39.726Z,90.85
2017-11-17T06:03:44.603Z,91.20
2017-11-17T06:04:49.773Z,91.60
2017-11-17T06:05:54.949Z,91.94
2017-11-17T06:06:59.861Z,91.75
2017-11-17T06:08:04.723Z,91.60
2017-11-17T06:09:09.637Z,91.35
2017-11-17T06:10:14.513Z,91.75
2017-11-17T06:11:19.367Z,91.40
2017-11-17T06:12:24.596Z,91.79
2017-11-17T06:13:29.388Z,91.50
2017-11-17T06:14:34.223Z,91.28
2017-11-17T06:15:39.098Z,91.21
2017-11-17T06:16:43.950Z,91.13
2017-11-17T06:17:48.797Z,90.74
2017-11-17T06:18:53.924Z,90.75
2017-11-17T06:19:58.759Z,90.69
2017-11-17T06:21:03.566Z,91.30
2017-11-17T06:22:08.381Z,91.21
2017-11-17T06:23:13.200Z,91.21
2017-11-17T06:24:18.050Z,90.97
2017-11-17T06:25:23.374Z,90.85
2017-11-17T06:26:28.214Z,91.99
2017-11-17T06:27:33.519Z,91.91
2017-11-17T06:28:38.359Z,91.58
2017-11-17T06:29:43.282Z,91.70
2017-11-17T06:30:48.108Z,91.58
2017-11-17T06:31:53.273Z,91.50
2017-11-17T06:32:58.119Z,91.37
2017-11-17T06:34:02.949Z,91.45
2017-11-17T06:35:07.774Z,91.56
2017-11-17T06:36:12.605Z,91.37
2017-11-17T06:37:17.424Z,90.58
2017-11-17T06:38:22.665Z,90.72
2017-11-17T06:39:27.468Z,91.56
2017-11-17T06:40:32.205Z,91.86
2017-11-17T06:41:36.921Z,92.20
2017-11-17T06:42:41.759Z,92.03
2017-11-17T06:43:46.624Z,92.10
2017-11-17T06:44:51.786Z,92.09
2017-11-17T06:45:56.640Z,92.21
2017-11-17T06:47:01.477Z,92.49
2017-11-17T06:48:06.330Z,92.59
2017-11-17T06:49:11.232Z,92.35
2017-11-17T06:50:16.427Z,91.88
2017-11-17T06:51:21.556Z,91.47
2017-11-17T06:52:26.518Z,91.05
2017-11-17T06:53:31.413Z,91.19
2017-11-17T06:54:36.272Z,90.85
2017-11-17T06:55:41.089Z,90.17
2017-11-17T06:56:45.917Z,90.50
2017-11-17T06:57:51.052Z,90.29
2017-11-17T06:58:55.915Z,90.37
2017-11-17T07:00:00.697Z,90.18
2017-11-17T07:01:05.689Z,90.32
2017-11-17T07:02:10.508Z,90.37
2017-11-17T07:03:15.253Z,90.66
2017-11-17T07:04:20.375Z,90.38
2017-11-17T07:05:25.081Z,90.04
2017-11-17T07:06:29.859Z,89.81
2017-11-17T07:07:34.634Z,90.60
2017-11-17T07:08:39.365Z,90.96
2017-11-17T07:09:44.076Z,90.85
2017-11-17T07:10:49.091Z,91.12
2017-11-17T07:11:53.959Z,90.91
2017-11-17T07:12:58.843Z,90.89
2017-11-17T07:14:03.778Z,90.59
2017-11-17T07:15:08.705Z,90.35
2017-11-17T07:16:13.602Z,90.44
2017-11-17T07:17:18.805Z,90.09
2017-11-17T07:18:23.618Z,90.39
2017-11-17T07:19:28.466Z,90.42
2017-11-17T07:20:33.308Z,90.92
2017-11-17T07:21:38.109Z,91.31
2017-11-17T07:22:42.987Z,91.09
2017-11-17T07:23:48.513Z,91.59
2017-11-17T07:24:53.398Z,91.46
2017-11-17T07:25:58.276Z,91.54
2017-11-17T07:27:03.148Z,91.48
2017-11-17T07:28:08.003Z,91.10
2017-11-17T07:29:12.791Z,92.07
2017-11-17T07:30:17.883Z,91.97
2017-11-17T07:31:22.665Z,92.98
2017-11-17T07:32:27.420Z,92.95
2017-11-17T07:33:32.195Z,92.54
2017-11-17T07:34:36.943Z,92.08
2017-11-17T07:35:41.719Z,91.82
2017-11-17T07:36:46.514Z,91.51
2017-11-17T07:37:51.744Z,91.18
2017-11-17T07:38:56.517Z,91.12
2017-11-17T07:40:01.409Z,91.29
2017-11-17T07:41:06.184Z,92.45
2017-11-17T07:42:11.302Z,92.14
2017-11-17T07:43:16.105Z,91.90
2017-11-17T07:44:20.847Z,91.72
2017-11-17T07:45:25.564Z,91.70
2017-11-17T07:46:30.329Z,91.50
2017-11-17T07:47:35.049Z,91.33
2017-11-17T07:48:40.170Z,91.53
2017-11-17T07:49:44.877Z,92.06
2017-11-17T07:50:49.790Z,92.15
2017-11-17T07:51:54.601Z,91.58
2017-11-17T07:52:59.264Z,91.80
2017-11-17T07:54:03.969Z,91.94
2017-11-17T07:55:09.125Z,92.20
2017-11-17T07:56:14.042Z,92.46
2017-11-17T07:57:18.856Z,92.13
2017-11-17T07:58:24.400Z,91.62
2017-11-17T07:59:29.167Z,91.10
2017-11-17T08:00:33.992Z,91.08
2017-11-17T08:01:38.752Z,91.31
2017-11-17T08:02:43.599Z,91.43
2017-11-17T08:03:49.767Z,91.59
2017-11-17T08:04:54.706Z,91.22
2017-11-17T08:05:59.688Z,91.32
2017-11-17T08:07:04.780Z,90.50
2017-11-17T08:08:09.627Z,90.49
2017-11-17T08:09:14.422Z,90.75
2017-11-17T08:10:19.259Z,90.95
2017-11-17T08:11:24.095Z,91.29
2017-11-17T08:12:28.889Z,91.32
2017-11-17T08:13:34.046Z,91.18
2017-11-17T08:30:40.381Z,92.20
2017-11-17T08:31:45.479Z,91.96
2017-11-17T08:32:50.255Z,92.11
2017-11-17T08:33:55.486Z,92.17
2017-11-17T08:35:00.250Z,92.49
2017-11-17T08:36:05.421Z,92.19
2017-11-17T08:37:10.266Z,92.27
2017-11-17T08:38:15.041Z,92.28
2017-11-17T08:39:19.795Z,92.01
2017-11-17T08:40:24.616Z,92.12
2017-11-17T08:41:29.413Z,92.01
2017-11-17T08:42:34.471Z,91.95
2017-11-17T08:43:39.324Z,91.48
2017-11-17T08:44:44.077Z,91.29
2017-11-17T08:45:49.202Z,91.26
2017-11-17T08:46:53.940Z,91.61
2017-11-17T08:47:59.128Z,91.16
2017-11-17T08:49:04.001Z,90.54
2017-11-17T08:50:08.646Z,90.73
2017-11-17T08:51:13.216Z,90.26
2017-11-17T08:52:17.821Z,90.12
2017-11-17T08:53:22.439Z,89.17
2017-11-17T08:54:27.184Z,89.21
2017-11-17T08:55:32.298Z,89.39
2017-11-17T08:56:37.111Z,89.59
2017-11-17T08:57:41.873Z,89.73
2017-11-17T08:58:46.629Z,89.63
2017-11-17T08:59:51.374Z,90.06
2017-11-17T09:00:56.155Z,89.87
2017-11-17T09:02:01.308Z,89.96
2017-11-17T09:03:06.960Z,89.30
2017-11-17T09:04:12.429Z,89.92
2017-11-17T09:05:17.287Z,89.47
2017-11-17T09:06:22.242Z,90.26
2017-11-17T09:07:27.162Z,89.70
2017-11-17T09:08:32.345Z,89.66
2017-11-17T09:09:37.243Z,89.85
2017-11-17T09:10:42.257Z,90.16
2017-11-17T09:11:47.019Z,90.75
2017-11-17T09:12:51.963Z,90.06
2017-11-17T09:13:56.816Z,90.44
2017-11-17T09:15:02.153Z,91.28
2017-11-17T09:16:06.963Z,91.60
2017-11-17T09:17:11.790Z,90.86
2017-11-17T09:18:16.662Z,90.71
2017-11-17T09:19:21.509Z,90.89
2017-11-17T09:20:26.917Z,90.38
2017-11-17T09:21:32.156Z,89.97
2017-11-17T09:22:36.984Z,89.83
2017-11-17T09:23:41.814Z,89.79
2017-11-17T09:24:47.053Z,89.73
2017-11-17T09:25:51.984Z,89.18
2017-11-17T09:26:56.872Z,89.01
2017-11-17T09:28:02.121Z,89.65
2017-11-17T09:29:07.050Z,89.64
2017-11-17T09:30:12.433Z,89.48
2017-11-17T09:31:17.331Z,89.10
2017-11-17T09:32:22.252Z,89.00
2017-11-17T09:33:27.162Z,89.33
2017-11-17T09:34:32.423Z,89.00
2017-11-17T09:35:37.310Z,89.06
2017-11-17T09:36:42.324Z,89.34
2017-11-17T09:37:47.169Z,88.73
2017-11-17T09:38:52.034Z,88.69
2017-11-17T09:39:56.894Z,88.74
2017-11-17T09:41:02.267Z,88.38
2017-11-17T09:42:07.539Z,88.31
2017-11-17T09:43:12.396Z,87.27
2017-11-17T09:44:17.218Z,86.70
2017-11-17T09:45:22.056Z,85.64
2017-11-17T09:46:27.465Z,86.31
2017-11-17T09:47:32.856Z,86.08
2017-11-17T09:48:37.726Z,86.80
2017-11-17T09:49:42.606Z,87.04
2017-11-17T09:50:47.438Z,87.17
2017-11-17T09:51:52.326Z,87.26
2017-11-17T09:52:57.604Z,87.03
2017-11-17T09:54:02.895Z,86.36
2017-11-17T09:55:07.790Z,86.23
2017-11-17T09:56:12.929Z,86.49
2017-11-17T09:57:19.455Z,86.40
2017-11-17T09:58:24.396Z,87.93
2017-11-17T09:59:29.321Z,87.69
2017-11-17T10:00:34.520Z,87.41
2017-11-17T10:01:39.328Z,87.48
2017-11-17T10:02:44.296Z,88.35
2017-11-17T10:03:49.109Z,88.00
2017-11-17T10:04:53.965Z,87.46
2017-11-17T10:05:58.711Z,87.43
2017-11-17T10:07:03.844Z,87.24
2017-11-17T10:08:08.743Z,87.52
2017-11-17T10:09:13.580Z,86.71
2017-11-17T10:10:18.349Z,86.41
2017-11-17T10:11:23.161Z,86.66
2017-11-17T10:12:27.925Z,86.38
2017-11-17T10:13:33.139Z,86.02
2017-11-17T10:14:37.942Z,85.09
2017-11-17T10:16:57.764Z,84.40
2017-11-17T10:18:02.522Z,84.12
2017-11-17T10:19:07.312Z,85.36
2017-11-17T10:20:12.564Z,84.65
2017-11-17T10:21:17.341Z,84.20
2017-11-17T10:22:22.114Z,84.66
2017-11-17T10:24:50.206Z,83.08
2017-11-17T10:25:55.142Z,82.45
2017-11-17T10:26:59.950Z,83.45
2017-11-17T10:28:04.677Z,83.31
2017-11-17T10:29:10.178Z,83.55
2017-11-17T10:30:15.084Z,83.40
2017-11-17T10:31:20.292Z,83.00
2017-11-17T10:32:24.961Z,83.21
2017-11-17T10:33:29.693Z,83.93
2017-11-17T10:34:34.547Z,82.60
2017-11-17T10:35:40.313Z,82.83
2017-11-17T10:36:45.491Z,83.57
2017-11-17T10:37:50.235Z,81.22
2017-11-17T10:38:56.152Z,81.61
2017-11-17T10:40:00.921Z,81.57
2017-11-17T10:41:06.864Z,82.33
2017-11-17T10:42:12.897Z,83.08
2017-11-17T10:43:17.986Z,83.04
2017-11-17T10:44:22.602Z,82.83
2017-11-17T10:45:29.598Z,82.94
2017-11-17T10:46:35.821Z,83.15
2017-11-17T10:47:40.542Z,83.26
2017-11-17T10:48:45.373Z,83.46
2017-11-17T10:49:50.977Z,83.01
2017-11-17T10:50:55.817Z,82.72
2017-11-17T10:52:00.764Z,82.29
2017-11-17T10:53:06.297Z,84.32
2017-11-17T10:54:11.179Z,83.08
2017-11-17T10:55:16.016Z,82.80
2017-11-17T10:56:34.955Z,82.98
2017-11-17T10:57:39.707Z,82.57
2017-11-17T10:58:44.433Z,83.00
2017-11-17T11:15:36.798Z,83.40
2017-11-17T11:16:42.067Z,82.16
2017-11-17T11:17:48.391Z,81.82
2017-11-17T11:18:53.629Z,81.64
2017-11-17T11:19:58.515Z,82.58
2017-11-17T11:21:03.660Z,82.51
2017-11-17T11:22:08.434Z,82.39
2017-11-17T11:23:13.186Z,82.97
2017-11-17T11:24:17.990Z,83.60
2017-11-17T11:25:22.860Z,83.57
2017-11-17T11:26:27.663Z,83.29
2017-11-17T11:27:32.694Z,83.45
2017-11-17T11:28:37.408Z,83.91
2017-11-17T11:29:42.514Z,83.36
2017-11-17T11:30:47.334Z,83.98
2017-11-17T11:31:52.126Z,83.41
2017-11-17T11:32:56.913Z,82.89
2017-11-17T11:34:02.213Z,84.72
2017-11-17T11:35:07.099Z,84.62
2017-11-17T11:36:12.004Z,82.50
2017-11-17T11:37:16.877Z,82.29
2017-11-17T11:38:21.702Z,81.39
2017-11-17T11:39:27.248Z,80.88
2017-11-17T11:40:32.527Z,80.71
2017-11-17T11:41:38.203Z,81.33
2017-11-17T11:42:43.108Z,81.64
2017-11-17T11:43:47.891Z,83.08
2017-11-17T11:44:52.714Z,81.79
2017-11-17T11:45:57.601Z,80.66
2017-11-17T11:47:02.891Z,80.59
2017-11-17T11:48:07.765Z,80.74
2017-11-17T11:49:12.525Z,80.50
2017-11-17T11:50:17.325Z,81.01
2017-11-17T11:51:22.282Z,80.61
2017-11-17T11:52:27.140Z,80.59
2017-11-17T11:53:32.524Z,80.41
2017-11-17T11:54:37.326Z,79.46
2017-11-17T11:55:42.180Z,79.08
2017-11-17T11:56:47.366Z,78.51
2017-11-17T11:57:53.102Z,79.21
2017-11-17T11:58:58.551Z,78.52
2017-11-17T12:00:04.655Z,77.90
2017-11-17T12:01:09.966Z,78.23
2017-11-17T12:02:14.773Z,76.77
2017-11-17T12:03:19.557Z,76.67
2017-11-17T12:04:24.537Z,77.19
2017-11-17T12:05:29.309Z,77.08
2017-11-17T12:06:34.092Z,77.47
2017-11-17T12:07:39.659Z,76.79
2017-11-17T12:08:44.873Z,76.40
2017-11-17T12:09:51.478Z,76.48
2017-11-17T12:10:56.239Z,76.53
2017-11-17T12:12:01.433Z,76.14
2017-11-17T12:13:06.200Z,75.74
2017-11-17T12:14:12.211Z,76.64
2017-11-17T12:15:18.031Z,76.80
2017-11-17T12:16:23.712Z,76.34
2017-11-17T12:17:28.529Z,75.96
2017-11-17T12:18:35.614Z,75.75
2017-11-17T12:19:41.337Z,75.88
2017-11-17T12:20:46.822Z,76.05
2017-11-17T12:21:51.752Z,76.09
2017-11-17T12:22:57.060Z,76.09
2017-11-17T12:24:02.905Z,75.82
2017-11-17T12:25:07.887Z,76.63
2017-11-17T12:26:13.731Z,76.49
2017-11-17T12:27:18.604Z,77.08
2017-11-17T12:28:24.400Z,77.90
2017-11-17T12:29:29.505Z,77.08
2017-11-17T12:30:34.237Z,76.68
2017-11-17T12:31:39.093Z,76.40
2017-11-17T12:32:43.889Z,75.68
2017-11-17T12:33:48.669Z,74.92
2017-11-17T12:34:53.442Z,75.20
2017-11-17T12:35:58.484Z,75.28
2017-11-17T12:37:03.408Z,74.80
2017-11-17T12:38:08.273Z,75.09
2017-11-17T12:39:13.153Z,75.36
2017-11-17T12:40:18.320Z,75.26
2017-11-17T12:41:23.769Z,74.65
2017-11-17T12:42:29.086Z,74.40
2017-11-17T12:43:33.985Z,73.14
2017-11-17T12:44:39.781Z,74.30
2017-11-17T12:45:44.728Z,73.09
2017-11-17T12:46:49.579Z,73.09
2017-11-17T12:47:56.609Z,73.46
2017-11-17T12:49:01.402Z,73.27
2017-11-17T12:50:06.214Z,73.76
2017-11-17T12:51:11.177Z,72.99
2017-11-17T12:52:16.099Z,72.71
2017-11-17T12:53:20.990Z,72.45
2017-11-17T12:54:25.729Z,72.83
2017-11-17T12:55:30.906Z,72.72
2017-11-17T12:56:36.514Z,72.86
2017-11-17T12:57:41.314Z,72.36
2017-11-17T12:58:46.438Z,71.80
2017-11-17T12:59:51.451Z,72.19
2017-11-17T13:00:56.277Z,72.58
2017-11-17T13:02:01.694Z,71.76
2017-11-17T13:03:06.511Z,72.73
2017-11-17T13:04:12.551Z,72.89
2017-11-17T13:05:17.297Z,72.51
2017-11-17T13:06:22.374Z,72.51
2017-11-17T13:07:28.465Z,72.57
2017-11-17T13:08:33.412Z,73.07
2017-11-17T13:09:38.299Z,73.69
2017-11-17T13:10:43.215Z,73.40
2017-11-17T13:11:47.979Z,73.16
2017-11-17T13:12:52.908Z,73.43
2017-11-17T13:13:57.749Z,73.60
2017-11-17T13:15:02.889Z,73.40
2017-11-17T13:16:07.750Z,74.06
2017-11-17T13:17:12.722Z,74.08
2017-11-17T13:18:18.024Z,73.69
2017-11-17T13:19:23.434Z,73.98
2017-11-17T13:20:28.251Z,73.50
2017-11-17T13:21:33.532Z,73.10
2017-11-17T13:22:38.291Z,73.56
2017-11-17T13:23:43.081Z,73.55
2017-11-17T13:24:48.390Z,73.21
2017-11-17T13:25:53.289Z,73.62
2017-11-17T13:26:59.021Z,72.59
2017-11-17T13:28:04.442Z,73.28
2017-11-17T13:29:09.281Z,73.42
2017-11-17T13:34:18.778Z,71.58
2017-11-17T13:35:24.158Z,71.44
2017-11-17T13:36:29.081Z,71.21
2017-11-17T13:37:34.044Z,69.84
2017-11-17T13:38:38.973Z,69.61
2017-11-17T13:39:43.886Z,68.80
2017-11-17T13:40:48.991Z,68.41
2017-11-17T13:41:54.060Z,68.86
2017-11-17T13:42:58.907Z,69.47
2017-11-17T13:44:03.891Z,68.63
2017-11-17T13:45:08.728Z,67.83
2017-11-17T13:46:13.530Z,67.32
2017-11-17T13:47:18.790Z,67.16
2017-11-17T13:48:24.111Z,67.28
2017-11-17T13:49:29.083Z,67.37
2017-11-17T13:50:33.863Z,67.00
2017-11-17T13:51:39.306Z,66.79
2017-11-17T13:52:44.162Z,67.10
2017-11-17T13:53:49.042Z,66.95
2017-11-17T13:54:54.038Z,66.45
2017-11-17T13:55:58.876Z,66.84
2017-11-17T13:57:03.855Z,67.08
2017-11-17T14:16:37.044Z,69.01
2017-11-17T14:17:42.825Z,68.95
2017-11-17T14:18:49.244Z,68.56
2017-11-17T14:19:55.128Z,68.98
2017-11-17T14:21:00.704Z,68.64
2017-11-17T14:22:06.584Z,68.31
2017-11-17T14:23:13.018Z,69.58
2017-11-17T14:24:18.071Z,68.86
2017-11-17T14:25:23.368Z,68.90
2017-11-17T14:26:28.580Z,69.80
2017-11-17T14:27:34.832Z,70.27
2017-11-17T14:28:40.888Z,69.47
2017-11-17T14:29:46.630Z,69.52
2017-11-17T14:30:52.654Z,69.78
2017-11-17T14:31:59.643Z,69.32
2017-11-17T14:33:06.346Z,69.66
2017-11-17T14:34:12.800Z,69.39
2017-11-17T14:35:20.962Z,69.70
2017-11-17T14:36:28.010Z,69.57
2017-11-17T14:37:33.789Z,68.88
2017-11-17T14:38:41.964Z,70.01
2017-11-17T14:39:47.378Z,70.33
2017-11-17T14:40:53.474Z,69.42
2017-11-17T14:41:59.011Z,69.27
2017-11-17T14:43:04.366Z,68.56
2017-11-17T14:44:11.203Z,69.03
2017-11-17T14:45:16.674Z,69.46
2017-11-17T14:46:22.294Z,69.44
2017-11-17T14:47:27.800Z,68.88
2017-11-17T14:48:33.602Z,70.05
2017-11-17T14:49:38.883Z,69.99
2017-11-17T14:50:44.533Z,70.20
2017-11-17T14:51:50.592Z,69.09
2017-11-17T14:52:56.999Z,69.21
2017-11-17T14:54:03.295Z,69.83
2017-11-17T14:55:09.247Z,69.47
2017-11-17T14:56:14.777Z,70.04
2017-11-17T14:57:20.760Z,69.26
2017-11-17T14:58:27.839Z,69.65
2017-11-17T14:59:34.261Z,69.46
2017-11-17T15:00:41.377Z,69.34
2017-11-17T15:01:49.233Z,69.08
2017-11-17T15:02:56.456Z,68.94
2017-11-17T15:04:02.626Z,68.44
2017-11-17T15:05:10.309Z,68.46
2017-11-17T15:06:17.761Z,69.11
2017-11-17T15:07:25.088Z,69.72
2017-11-17T15:08:33.706Z,69.49
2017-11-17T15:09:40.507Z,69.33
2017-11-17T15:10:46.298Z,68.91
2017-11-17T15:11:52.425Z,68.90
2017-11-17T15:12:59.320Z,68.43
2017-11-17T15:14:05.536Z,67.60
2017-11-17T15:15:11.910Z,67.78
2017-11-17T15:16:18.517Z,67.60
2017-11-17T15:17:25.995Z,67.59
2017-11-17T15:18:31.468Z,66.68
2017-11-17T15:19:38.836Z,67.46
2017-11-17T15:20:45.840Z,67.18
2017-11-17T15:21:51.933Z,66.56
2017-11-17T15:22:57.814Z,66.92
2017-11-17T15:24:04.290Z,66.95
2017-11-17T15:25:11.139Z,66.68